createdAt,value
2017-12-08T00:00:48.049Z,97834.14
2017-12-08T00:03:19.590Z,97838.02
2017-12-08T00:05:50.899Z,97824.83
2017-12-08T00:08:22.020Z,97817.75
2017-12-08T00:10:54.051Z,97826.66
2017-12-08T00:13:25.633Z,97833.02
2017-12-08T00:15:56.469Z,97831.65
2017-12-08T00:18:27.695Z,97835.45
2017-12-08T00:20:58.928Z,97834.97
2017-12-08T00:23:29.883Z,97819.98
2017-12-08T00:26:01.180Z,97822.53
2017-12-08T00:28:32.263Z,97824.92
2017-12-08T00:31:03.334Z,97812.48
2017-12-08T00:33:34.578Z,97813.52
2017-12-08T00:36:05.492Z,97819.78
2017-12-08T00:38:36.418Z,97815.03
2017-12-08T00:41:07.565Z,97801.88
2017-12-08T00:43:38.550Z,97798.86
2017-12-08T00:46:09.532Z,97791.99
2017-12-08T00:48:40.694Z,97792.36
2017-12-08T00:51:12.448Z,97799.16
2017-12-08T00:53:43.349Z,97794.26
2017-12-08T00:56:14.409Z,97797.97
2017-12-08T00:58:45.457Z,97803.52
2017-12-08T01:01:16.383Z,97802.00
2017-12-08T01:03:49.819Z,97800.88
2017-12-08T01:06:20.900Z,97793.88
2017-12-08T01:08:51.855Z,97794.81
2017-12-08T01:11:23.041Z,97799.00
2017-12-08T01:13:54.551Z,97799.22
2017-12-08T01:16:25.691Z,97808.11
2017-12-08T01:18:57.065Z,97803.34
2017-12-08T01:21:29.030Z,97811.20
2017-12-08T01:24:05.662Z,97810.66
2017-12-08T01:26:37.824Z,97815.95
2017-12-08T01:29:08.818Z,97805.37
2017-12-08T01:31:41.001Z,97809.95
2017-12-08T01:34:12.027Z,97803.99
2017-12-08T01:36:43.671Z,97798.41
2017-12-08T01:39:15.968Z,97801.27
2017-12-08T01:41:50.925Z,97810.23
2017-12-08T01:44:22.821Z,97803.02
2017-12-08T01:46:57.427Z,97808.70
2017-12-08T01:49:30.353Z,97801.02
2017-12-08T01:52:03.534Z,97792.70
2017-12-08T01:54:39.673Z,97793.94
2017-12-08T01:57:15.689Z,97790.49
2017-12-08T01:59:49.302Z,97792.90
2017-12-08T02:02:23.523Z,97792.03
2017-12-08T02:04:54.634Z,97792.68
2017-12-08T02:07:27.005Z,97795.03
2017-12-08T02:09:58.616Z,97791.48
2017-12-08T02:12:31.954Z,97783.14
2017-12-08T02:15:03.420Z,97784.88
2017-12-08T02:17:35.501Z,97774.70
2017-12-08T02:20:09.816Z,97781.03
2017-12-08T02:22:41.411Z,97780.08
2017-12-08T02:25:13.142Z,97773.70
2017-12-08T02:27:46.439Z,97781.65
2017-12-08T02:30:17.924Z,97777.97
2017-12-08T02:32:49.763Z,97784.02
2017-12-08T02:35:21.549Z,97791.13
2017-12-08T02:37:52.975Z,97783.25
2017-12-08T02:40:24.942Z,97772.09
2017-12-08T02:42:56.685Z,97771.26
2017-12-08T02:45:27.648Z,97768.02
2017-12-08T02:47:58.400Z,97777.23
2017-12-08T02:50:30.368Z,97777.27
2017-12-08T02:53:02.795Z,97783.11
2017-12-08T02:55:35.133Z,97779.28
2017-12-08T02:58:05.925Z,97784.39
2017-12-08T03:00:37.003Z,97776.61
2017-12-08T03:03:09.601Z,97775.17
2017-12-08T03:05:41.574Z,97778.38
2017-12-08T03:08:12.322Z,97777.44
2017-12-08T03:10:54.250Z,97779.42
2017-12-08T03:13:26.029Z,97784.33
2017-12-08T03:15:57.115Z,97790.82
2017-12-08T03:18:28.177Z,97784.21
2017-12-08T03:20:59.982Z,97788.29
2017-12-08T03:23:30.789Z,97787.44
2017-12-08T03:26:03.246Z,97793.00
2017-12-08T03:28:36.760Z,97794.88
2017-12-08T03:31:09.397Z,97789.75
2017-12-08T03:33:43.846Z,97797.87
2017-12-08T03:36:15.026Z,97821.37
2017-12-08T03:38:46.060Z,97827.92
2017-12-08T03:41:17.762Z,97830.92
2017-12-08T03:43:48.954Z,97848.08
2017-12-08T03:46:21.136Z,97831.01
2017-12-08T03:48:53.662Z,97815.19
2017-12-08T03:51:25.036Z,97803.56
2017-12-08T03:53:56.685Z,97805.73
2017-12-08T03:56:28.495Z,97814.37
2017-12-08T03:58:59.862Z,97807.40
2017-12-08T04:01:33.065Z,97791.32
2017-12-08T04:04:04.262Z,97807.36
2017-12-08T04:06:35.913Z,97809.19
2017-12-08T04:09:07.415Z,97826.14
2017-12-08T04:11:39.845Z,97816.86
2017-12-08T04:14:13.213Z,97826.77
2017-12-08T04:16:44.880Z,97829.01
2017-12-08T04:19:18.427Z,97831.15
2017-12-08T04:21:50.085Z,97830.74
2017-12-08T04:24:21.079Z,97821.50
2017-12-08T04:26:54.155Z,97824.53
2017-12-08T04:29:26.075Z,97820.05
2017-12-08T04:31:57.011Z,97818.82
2017-12-08T04:34:28.503Z,97818.61
2017-12-08T04:37:01.372Z,97827.81
2017-12-08T04:39:34.150Z,97826.66
2017-12-08T04:42:05.120Z,97825.67
2017-12-08T04:44:36.435Z,97819.31
2017-12-08T04:47:07.653Z,97818.23
2017-12-08T04:49:38.523Z,97823.65
2017-12-08T04:52:09.733Z,97823.66
2017-12-08T04:54:40.573Z,97825.40
2017-12-08T04:57:12.692Z,97817.55
2017-12-08T04:59:44.124Z,97818.20
2017-12-08T05:02:15.626Z,97824.08
2017-12-08T05:04:47.680Z,97820.88
2017-12-08T05:07:19.862Z,97831.84
2017-12-08T05:09:51.628Z,97840.78
2017-12-08T05:12:23.611Z,97829.81
2017-12-08T05:14:55.279Z,97829.08
2017-12-08T05:17:26.304Z,97831.30
2017-12-08T05:19:57.741Z,97835.45
2017-12-08T05:22:31.352Z,97838.91
2017-12-08T05:25:02.934Z,97834.55
2017-12-08T05:27:34.613Z,97836.89
2017-12-08T05:30:05.387Z,97831.33
2017-12-08T05:32:38.058Z,97834.13
2017-12-08T05:35:09.248Z,97835.38
2017-12-08T05:37:40.421Z,97834.77
2017-12-08T05:40:22.288Z,97836.25
2017-12-08T05:42:53.313Z,97836.41
2017-12-08T05:45:27.294Z,97839.72
2017-12-08T05:48:00.396Z,97846.30
2017-12-08T05:50:31.253Z,97836.95
2017-12-08T05:53:02.298Z,97848.77
2017-12-08T05:55:33.941Z,97840.78
2017-12-08T05:59:30.474Z,97840.13
2017-12-08T06:02:02.400Z,97832.04
2017-12-08T06:04:35.762Z,97838.81
2017-12-08T06:07:11.156Z,97831.88
2017-12-08T06:09:43.520Z,97835.54
2017-12-08T06:12:15.634Z,97832.78
2017-12-08T06:14:58.443Z,97836.09
2017-12-08T06:17:30.055Z,97834.03
2017-12-08T06:20:14.967Z,97839.08
2017-12-08T06:22:46.190Z,97852.72
2017-12-08T06:25:17.950Z,97848.55
2017-12-08T06:27:49.064Z,97849.35
2017-12-08T06:30:20.571Z,97852.59
2017-12-08T06:32:51.782Z,97860.06
2017-12-08T06:35:23.379Z,97864.22
2017-12-08T06:37:55.927Z,97853.06
2017-12-08T06:40:27.274Z,97863.09
2017-12-08T06:43:04.317Z,97850.38
2017-12-08T06:45:36.298Z,97860.49
2017-12-08T06:48:07.959Z,97864.80
2017-12-08T06:50:38.887Z,97866.23
2017-12-08T06:53:10.788Z,97868.69
2017-12-08T06:55:42.480Z,97864.48
2017-12-08T06:58:16.836Z,97863.00
2017-12-08T07:00:48.273Z,97870.41
2017-12-08T07:03:19.330Z,97863.71
2017-12-08T07:05:52.226Z,97868.91
2017-12-08T07:08:23.522Z,97866.97
2017-12-08T07:10:55.689Z,97869.39
2017-12-08T07:13:27.366Z,97869.70
2017-12-08T07:16:02.979Z,97874.49
2017-12-08T07:18:34.683Z,97870.30
2017-12-08T07:21:06.327Z,97880.81
2017-12-08T07:23:37.211Z,97883.15
2017-12-08T07:26:08.824Z,97881.14
2017-12-08T07:28:40.742Z,97877.66
2017-12-08T07:31:16.580Z,97889.73
2017-12-08T07:33:47.950Z,97878.19
2017-12-08T07:36:19.067Z,97876.03
2017-12-08T07:38:50.869Z,97878.84
2017-12-08T07:41:24.212Z,97890.45
2017-12-08T07:43:57.090Z,97886.12
2017-12-08T07:46:28.870Z,97883.96
2017-12-08T07:49:00.514Z,97886.67
2017-12-08T07:51:32.163Z,97896.81
2017-12-08T07:54:04.307Z,97892.51
2017-12-08T07:56:37.893Z,97891.03
2017-12-08T07:59:09.070Z,97896.63
2017-12-08T08:01:40.670Z,97896.39
2017-12-08T08:04:13.257Z,97909.70
2017-12-08T08:06:44.514Z,97901.95
2017-12-08T08:09:15.653Z,97896.96
2017-12-08T08:11:48.960Z,97904.32
2017-12-08T08:14:21.316Z,97897.19
2017-12-08T08:16:53.642Z,97893.71
2017-12-08T08:19:24.985Z,97898.39
2017-12-08T08:22:02.193Z,97902.33
2017-12-08T08:24:35.215Z,97904.12
2017-12-08T08:27:11.025Z,97910.30
2017-12-08T08:29:43.535Z,97913.50
2017-12-08T08:32:16.225Z,97923.16
2017-12-08T08:34:48.835Z,97928.43
2017-12-08T08:37:20.343Z,97942.53
2017-12-08T08:39:55.118Z,97963.31
2017-12-08T08:42:26.694Z,97981.69
2017-12-08T08:44:59.580Z,98001.08
2017-12-08T08:47:31.175Z,98009.17
2017-12-08T08:50:05.649Z,98013.72
2017-12-08T08:52:36.862Z,98013.27
2017-12-08T08:55:07.951Z,97985.70
2017-12-08T08:57:42.494Z,97991.94
2017-12-08T09:00:18.077Z,98000.39
2017-12-08T09:03:03.744Z,98011.70
2017-12-08T09:05:34.960Z,98005.41
2017-12-08T09:08:06.924Z,98019.91
2017-12-08T09:10:38.312Z,98027.14
2017-12-08T09:13:09.696Z,98028.65
2017-12-08T09:15:40.812Z,98033.57
2017-12-08T09:18:17.126Z,98031.88
2017-12-08T09:20:53.947Z,98016.09
2017-12-08T09:23:27.077Z,98010.47
2017-12-08T09:26:02.087Z,98006.81
2017-12-08T09:28:37.835Z,98009.60
2017-12-08T09:33:49.279Z,98016.63
2017-12-08T09:36:21.613Z,98023.68
2017-12-08T09:38:53.988Z,98023.38
2017-12-08T09:41:25.864Z,98028.69
2017-12-08T09:43:59.321Z,98020.80
2017-12-08T09:46:31.267Z,98022.43
2017-12-08T09:49:04.556Z,98017.53
2017-12-08T09:51:43.624Z,98022.81
2017-12-08T09:54:22.523Z,98020.00
2017-12-08T09:57:03.158Z,98020.36
2017-12-08T09:59:37.103Z,98014.29
2017-12-08T10:02:08.902Z,98013.74
2017-12-08T10:04:41.764Z,98006.44
2017-12-08T10:07:14.514Z,98007.83
2017-12-08T10:09:46.210Z,98012.73
2017-12-08T10:12:22.039Z,98006.70
2017-12-08T10:14:54.794Z,98005.08
2017-12-08T10:17:26.158Z,97996.77
2017-12-08T10:19:58.030Z,97996.73
2017-12-08T10:22:29.679Z,97990.73
2017-12-08T10:25:01.392Z,97989.54
2017-12-08T10:27:34.040Z,97988.76
2017-12-08T10:30:07.506Z,97989.30
2017-12-08T10:32:45.103Z,97991.04
2017-12-08T10:35:20.388Z,97989.00
2017-12-08T10:37:52.543Z,97973.06
2017-12-08T10:40:23.956Z,97974.09
2017-12-08T10:42:55.526Z,97969.44
2017-12-08T10:45:29.594Z,97955.95
2017-12-08T10:48:06.345Z,97948.09
2017-12-08T10:50:39.094Z,97957.02
2017-12-08T10:53:09.947Z,97945.10
2017-12-08T10:55:43.662Z,97959.89
2017-12-08T10:58:15.469Z,97950.20
2017-12-08T11:05:06.768Z,97942.41
2017-12-08T11:07:38.614Z,97938.45
2017-12-08T11:10:19.218Z,97951.64
2017-12-08T11:12:51.410Z,97943.91
2017-12-08T11:15:25.695Z,97945.42
2017-12-08T11:17:57.454Z,97945.95
2017-12-08T11:20:30.113Z,97944.23
2017-12-08T11:23:02.139Z,97932.08
2017-12-08T11:25:33.627Z,97935.82
2017-12-08T11:28:04.781Z,97935.45
2017-12-08T11:30:36.145Z,97934.39
2017-12-08T11:33:07.642Z,97929.95
2017-12-08T11:35:43.548Z,97929.97
2017-12-08T11:38:15.840Z,97919.16
2017-12-08T11:40:49.871Z,97922.26
2017-12-08T11:43:23.667Z,97917.78
2017-12-08T11:45:58.305Z,97908.76
2017-12-08T11:48:31.836Z,97905.04
2017-12-08T11:51:04.079Z,97905.60
2017-12-08T11:53:37.450Z,97911.16
2017-12-08T11:56:17.343Z,97912.29
2017-12-08T11:58:50.969Z,97901.71
2017-12-08T12:01:23.101Z,97890.83
2017-12-08T12:03:55.597Z,97898.08
2017-12-08T12:06:27.791Z,97884.40
2017-12-08T12:09:00.311Z,97880.86
2017-12-08T12:14:20.581Z,97886.65
2017-12-08T12:16:58.476Z,97878.95
2017-12-08T12:19:35.153Z,97871.40
2017-12-08T12:22:21.210Z,97878.52
2017-12-08T12:24:57.998Z,97873.69
2017-12-08T12:27:38.820Z,97874.44
2017-12-08T12:30:18.025Z,97870.56
2017-12-08T12:32:51.109Z,97873.27
2017-12-08T12:35:32.514Z,97886.86
2017-12-08T12:38:08.424Z,97879.89
2017-12-08T12:40:42.620Z,97892.84
2017-12-08T12:43:35.823Z,97888.41
2017-12-08T12:46:12.200Z,97885.30
2017-12-08T12:48:43.823Z,97898.28
2017-12-08T12:51:23.332Z,97886.67
2017-12-08T12:53:57.058Z,97893.05
2017-12-08T12:56:31.309Z,97883.53
2017-12-08T12:59:07.989Z,97891.00
2017-12-08T13:01:56.334Z,97875.05
2017-12-08T13:04:37.267Z,97882.84
2017-12-08T13:07:09.392Z,97889.34
2017-12-08T13:09:50.240Z,97892.91
2017-12-08T13:12:27.069Z,97901.96
2017-12-08T13:15:11.782Z,97897.14
2017-12-08T13:17:44.561Z,97902.02
2017-12-08T13:23:20.713Z,97879.03
2017-12-08T13:26:01.624Z,97876.28
2017-12-08T13:28:35.365Z,97866.30
2017-12-08T13:31:07.247Z,97866.10
2017-12-08T13:33:40.014Z,97876.84
2017-12-08T13:36:13.520Z,97873.42
2017-12-08T13:38:44.493Z,97876.34
2017-12-08T13:41:16.088Z,97864.35
2017-12-08T13:43:46.931Z,97862.06
2017-12-08T13:46:18.600Z,97858.28
2017-12-08T13:48:51.342Z,97854.88
2017-12-08T13:51:22.723Z,97857.13
2017-12-08T13:56:11.009Z,97855.89
2017-12-08T13:58:43.123Z,97846.36
2017-12-08T14:01:15.310Z,97849.06
2017-12-08T14:03:47.872Z,97851.18
2017-12-08T14:06:20.009Z,97860.97
2017-12-08T14:08:54.241Z,97864.75
2017-12-08T14:11:25.907Z,97870.38
2017-12-08T14:13:58.393Z,97870.40
2017-12-08T14:16:30.693Z,97875.73
2017-12-08T14:19:04.406Z,97867.64
2017-12-08T14:21:36.397Z,97864.97
2017-12-08T14:24:11.146Z,97868.30
2017-12-08T14:26:48.002Z,97875.41
2017-12-08T14:29:20.762Z,97869.78
2017-12-08T14:31:54.133Z,97874.67
2017-12-08T14:34:27.188Z,97876.53
2017-12-08T14:37:02.108Z,97878.08
2017-12-08T14:39:33.849Z,97877.46
2017-12-08T14:42:06.487Z,97882.80
2017-12-08T14:44:38.494Z,97874.22
2017-12-08T14:47:09.657Z,97887.83
2017-12-08T14:49:40.740Z,97887.34
2017-12-08T14:52:12.259Z,97893.74
2017-12-08T14:54:44.993Z,97887.44
2017-12-08T14:57:16.444Z,97889.03
2017-12-08T14:59:50.503Z,97893.05
2017-12-08T15:02:29.949Z,97899.38
2017-12-08T15:05:13.187Z,97901.23
2017-12-08T15:07:50.073Z,97898.72
2017-12-08T15:10:23.370Z,97889.78
2017-12-08T15:12:54.481Z,97885.11
2017-12-08T15:15:26.324Z,97885.09
2017-12-08T15:18:07.159Z,97887.28
2017-12-08T15:20:41.172Z,97888.61
2017-12-08T15:23:15.992Z,97884.25
2017-12-08T15:25:50.091Z,97883.12
2017-12-08T15:28:26.317Z,97876.70
2017-12-08T15:31:00.216Z,97881.05
2017-12-08T15:33:32.314Z,97874.45
2017-12-08T15:36:06.109Z,97868.60
2017-12-08T15:38:39.496Z,97881.77
2017-12-08T15:41:16.924Z,97879.35
2017-12-08T15:43:48.683Z,97875.63
2017-12-08T15:46:22.695Z,97871.37
2017-12-08T15:48:57.285Z,97861.31
2017-12-08T15:51:29.970Z,97871.11
2017-12-08T15:54:02.050Z,97863.97
2017-12-08T15:56:36.192Z,97867.15
2017-12-08T15:59:17.684Z,97864.32
2017-12-08T16:01:51.140Z,97871.79
2017-12-08T16:04:23.603Z,97879.83
2017-12-08T16:06:55.728Z,97888.52
2017-12-08T16:09:28.190Z,97884.03
2017-12-08T16:12:00.838Z,97889.51
2017-12-08T16:14:32.914Z,97892.05
2017-12-08T16:17:05.290Z,97897.78
2017-12-08T16:19:38.149Z,97898.59
2017-12-08T16:22:12.964Z,97898.49
2017-12-08T16:24:46.928Z,97904.51
2017-12-08T16:27:18.861Z,97903.70
2017-12-08T16:29:50.929Z,97908.83
2017-12-08T16:32:23.749Z,97909.15
2017-12-08T16:34:54.705Z,97922.47
2017-12-08T16:37:27.343Z,97924.92
2017-12-08T16:39:59.077Z,97926.43
2017-12-08T16:42:30.527Z,97926.80
2017-12-08T16:45:01.765Z,97931.56
2017-12-08T16:47:33.188Z,97943.02
2017-12-08T16:50:05.038Z,97950.73
2017-12-08T16:52:36.448Z,97945.00
2017-12-08T16:55:08.321Z,97953.71
2017-12-08T16:57:39.268Z,97969.52
2017-12-08T17:00:11.291Z,97968.99
2017-12-08T17:02:45.159Z,97980.95
2017-12-08T17:05:16.839Z,97984.25
2017-12-08T17:07:50.803Z,97987.63
2017-12-08T17:12:58.339Z,98012.13
2017-12-08T17:15:32.157Z,98016.67
2017-12-08T17:18:04.713Z,98010.45
2017-12-08T17:20:36.665Z,98013.70
2017-12-08T17:23:08.398Z,98016.00
2017-12-08T17:25:40.873Z,98016.25
2017-12-08T17:28:12.242Z,98019.59
2017-12-08T17:30:43.444Z,98031.92
2017-12-08T17:33:15.531Z,98034.90
2017-12-08T17:35:46.619Z,98027.56
2017-12-08T17:38:19.014Z,98038.77
2017-12-08T17:40:50.540Z,98041.81
2017-12-08T17:43:21.694Z,98038.55
2017-12-08T17:45:54.295Z,98044.36
2017-12-08T17:48:25.506Z,98041.01
2017-12-08T17:50:59.348Z,98045.09
2017-12-08T17:53:31.624Z,98049.69
2017-12-08T17:56:04.431Z,98046.86
2017-12-08T17:58:36.508Z,98043.47
2017-12-08T18:01:08.242Z,98042.28
2017-12-08T18:03:40.411Z,98036.50
2017-12-08T18:06:11.957Z,98038.55
2017-12-08T18:08:43.544Z,98045.62
2017-12-08T18:11:15.944Z,98046.88
2017-12-08T18:13:47.673Z,98046.31
2017-12-08T18:16:20.074Z,98060.84
2017-12-08T18:18:51.753Z,98065.36
2017-12-08T18:21:23.808Z,98069.58
2017-12-08T18:23:54.867Z,98067.79
2017-12-08T18:26:26.275Z,98075.25
2017-12-08T18:28:58.517Z,98083.17
2017-12-08T18:31:30.163Z,98077.91
2017-12-08T18:34:03.733Z,98078.66
2017-12-08T18:36:35.088Z,98068.72
2017-12-08T18:39:07.491Z,98079.53
2017-12-08T18:41:39.123Z,98077.48
2017-12-08T18:44:10.727Z,98082.69
2017-12-08T18:46:42.479Z,98084.19
2017-12-08T18:49:13.646Z,98089.42
2017-12-08T18:51:46.642Z,98087.95
2017-12-08T18:54:24.134Z,98093.62
2017-12-08T18:56:56.856Z,98093.47
2017-12-08T18:59:30.568Z,98095.64
2017-12-08T19:02:05.391Z,98098.35
2017-12-08T19:04:41.287Z,98102.91
2017-12-08T19:07:13.624Z,98107.22
2017-12-08T19:09:47.941Z,98113.23
2017-12-08T19:12:19.142Z,98117.55
2017-12-08T19:14:54.213Z,98117.90
2017-12-08T19:17:36.785Z,98115.95
2017-12-08T19:20:12.228Z,98124.55
2017-12-08T19:22:44.828Z,98124.64
2017-12-08T19:25:23.822Z,98116.92
2017-12-08T19:27:55.983Z,98116.91
2017-12-08T19:30:27.419Z,98116.94
2017-12-08T19:32:58.992Z,98109.08
2017-12-08T19:35:33.526Z,98112.02
2017-12-08T19:38:05.210Z,98105.19
2017-12-08T19:40:37.299Z,98117.86
2017-12-08T19:43:08.814Z,98121.75
2017-12-08T19:45:40.670Z,98122.45
2017-12-08T19:48:14.258Z,98112.44
2017-12-08T19:50:49.285Z,98112.95
2017-12-08T19:53:24.819Z,98116.56
2017-12-08T19:55:56.008Z,98116.59
2017-12-08T19:58:30.969Z,98119.27
2017-12-08T20:01:03.797Z,98119.63
2017-12-08T20:03:36.016Z,98113.85
2017-12-08T20:06:07.790Z,98110.62
2017-12-08T20:08:40.077Z,98107.61
2017-12-08T20:11:13.416Z,98108.23
2017-12-08T20:13:45.407Z,98104.38
2017-12-08T20:16:17.257Z,98109.27
2017-12-08T20:18:48.691Z,98109.22
2017-12-08T20:21:20.234Z,98111.73
2017-12-08T20:23:51.864Z,98113.91
2017-12-08T20:26:28.659Z,98113.52
2017-12-08T20:29:00.099Z,98115.39
2017-12-08T20:31:31.633Z,98117.47
2017-12-08T20:34:04.012Z,98107.95
2017-12-08T20:36:34.904Z,98110.30
2017-12-08T20:39:06.084Z,98110.93
2017-12-08T20:41:37.794Z,98105.87
2017-12-08T20:44:11.510Z,98116.51
2017-12-08T20:46:42.503Z,98106.45
2017-12-08T20:49:15.011Z,98105.08
2017-12-08T20:51:46.415Z,98118.39
2017-12-08T20:54:20.709Z,98118.97
2017-12-08T20:56:52.668Z,98118.98
2017-12-08T20:59:24.119Z,98124.47
2017-12-08T21:01:55.697Z,98117.35
2017-12-08T21:04:26.928Z,98123.85
2017-12-08T21:06:58.849Z,98126.05
2017-12-08T21:09:30.107Z,98126.58
2017-12-08T21:12:01.117Z,98131.71
2017-12-08T21:14:32.612Z,98136.80
2017-12-08T21:17:04.360Z,98132.43
2017-12-08T21:19:35.980Z,98129.40
2017-12-08T21:22:07.425Z,98143.94
2017-12-08T21:24:38.700Z,98146.39
2017-12-08T21:27:10.508Z,98148.39
2017-12-08T21:29:41.781Z,98153.73
2017-12-08T21:32:14.368Z,98148.70
2017-12-08T21:34:47.883Z,98139.37
2017-12-08T21:37:21.828Z,98140.99
2017-12-08T21:39:53.676Z,98141.47
2017-12-08T21:42:31.030Z,98129.86
2017-12-08T21:45:03.322Z,98141.56
2017-12-08T21:47:36.375Z,98150.47
2017-12-08T21:50:08.229Z,98146.02
2017-12-08T21:52:39.529Z,98152.15
2017-12-08T21:55:11.921Z,98153.58
2017-12-08T21:57:47.175Z,98152.03
2017-12-08T22:00:19.385Z,98154.89
2017-12-08T22:02:50.632Z,98165.05
2017-12-08T22:05:22.451Z,98164.64
2017-12-08T22:07:53.620Z,98155.92
2017-12-08T22:10:25.473Z,98149.11
2017-12-08T22:12:58.324Z,98151.22
2017-12-08T22:15:30.832Z,98154.41
2017-12-08T22:18:02.352Z,98152.72
2017-12-08T22:20:33.761Z,98151.82
2017-12-08T22:23:06.912Z,98149.69
2017-12-08T22:25:38.173Z,98149.33
2017-12-08T22:28:09.435Z,98141.91
2017-12-08T22:30:40.890Z,98137.36
2017-12-08T22:33:11.850Z,98146.58
2017-12-08T22:35:42.744Z,98138.28
2017-12-08T22:38:14.577Z,98132.76
2017-12-08T22:40:46.047Z,98122.91
2017-12-08T22:43:17.164Z,98116.22
2017-12-08T22:45:48.645Z,98121.80
2017-12-08T22:48:19.848Z,98119.65
2017-12-08T22:50:53.762Z,98111.97
2017-12-08T22:53:25.149Z,98100.60
2017-12-08T22:55:57.351Z,98105.53
2017-12-08T22:58:28.791Z,98110.23
2017-12-08T23:01:00.441Z,98119.72
2017-12-08T23:03:33.395Z,98104.09
2017-12-08T23:06:05.492Z,98103.07
2017-12-08T23:08:36.730Z,98104.00
2017-12-08T23:11:11.813Z,98096.73
2017-12-08T23:13:42.804Z,98089.25
2017-12-08T23:16:14.688Z,98090.50
2017-12-08T23:18:46.504Z,98087.33
2017-12-08T23:21:18.110Z,98087.19
2017-12-08T23:23:49.564Z,98088.89
2017-12-08T23:26:20.912Z,98089.23
2017-12-08T23:28:52.807Z,98091.73
2017-12-08T23:31:24.813Z,98085.13
2017-12-08T23:33:55.922Z,98076.03
2017-12-08T23:36:27.149Z,98071.87
2017-12-08T23:38:58.368Z,98069.57
2017-12-08T23:41:29.480Z,98076.03
2017-12-08T23:44:00.679Z,98070.77
2017-12-08T23:46:35.559Z,98065.11
2017-12-08T23:49:06.570Z,98060.28
2017-12-08T23:51:37.695Z,98059.12
2017-12-08T23:54:09.643Z,98052.17
2017-12-08T23:56:41.132Z,98045.42
2017-12-08T23:59:23.993Z,98038.88
